createdAt,value
2022-07-25T00:01:49.996Z,82.03
2022-07-25T00:04:17.634Z,82.39
2022-07-25T00:06:46.012Z,82.33
2022-07-25T00:09:13.329Z,82.18
2022-07-25T00:11:40.466Z,82.08
2022-07-25T00:14:07.857Z,81.79
2022-07-25T00:16:35.088Z,81.92
2022-07-25T00:19:02.393Z,81.69
2022-07-25T00:21:29.524Z,81.51
2022-07-25T00:23:56.519Z,81.59
2022-07-25T00:26:23.698Z,81.59
2022-07-25T00:28:50.810Z,81.56
2022-07-25T00:31:17.703Z,81.30
2022-07-25T00:33:44.627Z,81.67
2022-07-25T00:36:11.683Z,81.73
2022-07-25T00:38:38.598Z,81.59
2022-07-25T00:41:05.711Z,81.52
2022-07-25T00:43:32.765Z,81.54
2022-07-25T00:46:00.590Z,81.54
2022-07-25T00:48:29.025Z,81.82
2022-07-25T00:50:57.138Z,81.82
2022-07-25T00:53:24.741Z,81.84
2022-07-25T00:55:52.802Z,82.04
2022-07-25T00:58:20.047Z,82.00
2022-07-25T01:00:48.396Z,81.98
2022-07-25T01:03:16.436Z,81.96
2022-07-25T01:05:43.392Z,81.91
2022-07-25T01:08:10.994Z,82.06
2022-07-25T01:10:38.163Z,81.68
2022-07-25T01:13:05.647Z,81.91
2022-07-25T01:15:32.916Z,81.83
2022-07-25T01:17:59.869Z,81.99
2022-07-25T01:20:29.655Z,81.72
2022-07-25T01:22:57.662Z,81.31
2022-07-25T01:25:25.566Z,81.36
2022-07-25T01:27:55.780Z,81.68
2022-07-25T01:30:25.138Z,81.30
2022-07-25T01:32:53.045Z,81.36
2022-07-25T01:35:20.133Z,81.37
2022-07-25T01:37:47.141Z,81.24
2022-07-25T01:40:14.904Z,81.28
2022-07-25T01:42:43.136Z,81.41
2022-07-25T01:45:11.572Z,81.22
2022-07-25T01:47:39.370Z,81.19
2022-07-25T01:50:07.360Z,81.19
2022-07-25T01:52:34.217Z,81.34
2022-07-25T01:55:01.068Z,81.23
2022-07-25T01:57:31.076Z,81.17
2022-07-25T01:59:59.548Z,81.16
2022-07-25T02:02:27.368Z,81.12
2022-07-25T02:04:54.536Z,81.04
2022-07-25T02:07:21.489Z,81.09
2022-07-25T02:09:52.120Z,81.33
2022-07-25T02:12:21.760Z,81.25
2022-07-25T02:14:48.612Z,81.18
2022-07-25T02:17:15.827Z,81.16
2022-07-25T02:19:42.912Z,81.05
2022-07-25T02:22:09.749Z,81.11
2022-07-25T02:24:37.396Z,80.65
2022-07-25T02:27:05.561Z,80.47
2022-07-25T02:29:33.509Z,80.02
2022-07-25T02:32:00.385Z,80.02
2022-07-25T02:34:27.603Z,79.62
2022-07-25T02:36:54.490Z,79.58
2022-07-25T02:39:21.573Z,78.60
2022-07-25T02:41:48.761Z,78.54
2022-07-25T02:44:15.563Z,78.43
2022-07-25T02:46:42.368Z,78.44
2022-07-25T02:49:10.153Z,78.76
2022-07-25T02:51:37.048Z,78.88
2022-07-25T02:54:04.008Z,78.98
2022-07-25T02:56:31.868Z,79.00
2022-07-25T02:58:59.332Z,79.01
2022-07-25T03:01:26.259Z,79.08
2022-07-25T03:03:53.246Z,79.29
2022-07-25T03:06:20.122Z,79.39
2022-07-25T03:08:46.964Z,79.54
2022-07-25T03:11:14.416Z,79.49
2022-07-25T03:13:41.497Z,79.70
2022-07-25T03:16:09.956Z,79.87
2022-07-25T03:18:37.307Z,79.53
2022-07-25T03:21:04.549Z,79.65
2022-07-25T03:23:32.455Z,79.59
2022-07-25T03:25:59.490Z,79.50
2022-07-25T03:28:26.360Z,79.50
2022-07-25T03:30:53.747Z,79.36
2022-07-25T03:33:20.695Z,79.27
2022-07-25T03:35:47.901Z,78.77
2022-07-25T03:38:14.737Z,79.04
2022-07-25T03:40:41.617Z,78.92
2022-07-25T03:43:09.061Z,78.25
2022-07-25T03:45:35.982Z,78.12
2022-07-25T03:48:03.093Z,78.26
2022-07-25T03:50:30.121Z,78.25
2022-07-25T03:52:56.977Z,78.28
2022-07-25T03:55:24.117Z,78.00
2022-07-25T03:57:51.124Z,78.21
2022-07-25T04:00:18.561Z,78.39
2022-07-25T04:02:45.588Z,78.26
2022-07-25T04:05:12.576Z,78.22
2022-07-25T04:07:39.904Z,78.45
2022-07-25T04:10:07.857Z,78.33
2022-07-25T04:12:35.041Z,78.71
2022-07-25T04:15:01.938Z,78.63
2022-07-25T04:17:28.776Z,79.05
2022-07-25T04:19:56.107Z,78.80
2022-07-25T04:22:23.590Z,79.06
2022-07-25T04:24:50.522Z,78.99
2022-07-25T04:27:17.535Z,79.32
2022-07-25T04:29:44.394Z,79.43
2022-07-25T04:32:11.340Z,79.30
2022-07-25T04:34:38.366Z,79.71
2022-07-25T04:37:05.306Z,79.83
2022-07-25T04:39:32.270Z,79.83
2022-07-25T04:41:59.167Z,79.78
2022-07-25T04:44:26.210Z,79.86
2022-07-25T04:46:53.419Z,80.06
2022-07-25T04:49:20.311Z,80.19
2022-07-25T04:51:47.227Z,80.82
2022-07-25T04:54:14.155Z,81.00
2022-07-25T04:56:40.997Z,81.08
2022-07-25T04:59:08.162Z,80.68
2022-07-25T05:01:35.966Z,80.81
2022-07-25T05:04:03.163Z,80.76
2022-07-25T05:06:30.170Z,80.91
2022-07-25T05:08:57.016Z,81.00
2022-07-25T05:11:24.015Z,80.84
2022-07-25T05:13:50.940Z,80.75
2022-07-25T05:16:17.833Z,80.56
2022-07-25T05:18:44.673Z,80.68
2022-07-25T05:21:12.692Z,80.42
2022-07-25T05:23:40.287Z,80.18
2022-07-25T05:26:07.160Z,80.16
2022-07-25T05:28:34.179Z,80.00
2022-07-25T05:31:01.477Z,79.96
2022-07-25T05:33:28.489Z,79.76
2022-07-25T05:35:55.450Z,79.32
2022-07-25T05:38:22.337Z,78.97
2022-07-25T05:40:52.473Z,77.26
2022-07-25T05:43:19.865Z,75.47
2022-07-25T05:45:47.843Z,74.18
2022-07-25T05:48:15.752Z,73.59
2022-07-25T05:50:42.879Z,73.40
2022-07-25T05:53:10.091Z,72.73
2022-07-25T05:55:40.247Z,73.29
2022-07-25T05:58:09.621Z,73.44
2022-07-25T06:00:38.118Z,73.76
2022-07-25T06:03:05.288Z,74.22
2022-07-25T06:05:32.623Z,74.24
2022-07-25T06:07:59.625Z,74.24
2022-07-25T06:10:26.618Z,74.59
2022-07-25T06:12:53.841Z,74.69
2022-07-25T06:15:22.518Z,75.22
2022-07-25T06:17:53.337Z,75.25
2022-07-25T06:20:20.630Z,75.58
2022-07-25T06:22:47.517Z,75.68
2022-07-25T06:25:15.180Z,75.75
2022-07-25T06:27:42.789Z,75.88
2022-07-25T06:30:19.664Z,76.06
2022-07-25T06:32:51.357Z,75.97
2022-07-25T06:35:18.948Z,75.75
2022-07-25T06:37:46.006Z,75.68
2022-07-25T06:40:13.511Z,75.78
2022-07-25T06:42:46.180Z,75.94
2022-07-25T06:45:14.452Z,75.73
2022-07-25T06:47:43.203Z,75.60
2022-07-25T06:50:14.783Z,76.02
2022-07-25T06:52:42.349Z,75.67
2022-07-25T06:55:11.184Z,75.52
2022-07-25T06:57:38.240Z,75.48
2022-07-25T07:00:10.205Z,75.50
2022-07-25T07:03:01.768Z,74.67
2022-07-25T07:05:33.511Z,74.89
2022-07-25T07:08:01.308Z,74.82
2022-07-25T07:10:28.857Z,74.71
2022-07-25T07:13:15.333Z,74.07
2022-07-25T07:15:50.266Z,74.43
2022-07-25T07:18:19.060Z,74.26
2022-07-25T07:20:47.513Z,74.37
2022-07-25T07:23:17.089Z,74.12
2022-07-25T07:25:47.278Z,74.09
2022-07-25T07:28:15.797Z,73.51
2022-07-25T07:33:30.129Z,73.14
2022-07-25T07:35:57.392Z,72.50
2022-07-25T07:38:25.258Z,72.48
2022-07-25T07:40:53.222Z,72.85
2022-07-25T07:43:20.651Z,73.01
2022-07-25T07:45:47.625Z,73.11
2022-07-25T07:48:14.658Z,73.14
2022-07-25T07:50:41.600Z,72.26
2022-07-25T07:53:08.577Z,72.40
2022-07-25T07:55:44.286Z,72.36
2022-07-25T07:58:16.986Z,72.54
2022-07-25T08:00:47.520Z,72.52
2022-07-25T08:03:20.523Z,72.94
2022-07-25T08:05:49.145Z,73.67
2022-07-25T08:08:17.020Z,74.38
2022-07-25T08:10:47.954Z,74.77
2022-07-25T08:13:28.430Z,75.01
2022-07-25T08:16:00.201Z,74.34
2022-07-25T08:18:30.184Z,74.37
2022-07-25T08:20:57.705Z,74.12
2022-07-25T08:23:25.863Z,73.90
2022-07-25T08:25:52.811Z,73.51
2022-07-25T08:28:20.399Z,72.42
2022-07-25T08:30:47.555Z,72.42
2022-07-25T08:33:18.526Z,71.80
2022-07-25T08:35:49.361Z,70.32
2022-07-25T08:38:16.657Z,68.23
2022-07-25T08:40:43.609Z,68.76
2022-07-25T08:43:16.068Z,69.00
2022-07-25T08:45:47.827Z,68.48
2022-07-25T08:48:18.842Z,68.30
2022-07-25T08:50:47.276Z,67.46
2022-07-25T08:53:32.666Z,65.25
2022-07-25T08:56:00.608Z,64.91
2022-07-25T08:58:27.552Z,65.02
2022-07-25T09:00:54.404Z,64.95
2022-07-25T09:03:21.891Z,64.16
2022-07-25T09:05:48.863Z,62.80
2022-07-25T09:08:20.611Z,60.83
2022-07-25T09:10:53.258Z,60.65
2022-07-25T09:13:22.745Z,61.61
2022-07-25T09:15:57.018Z,60.95
2022-07-25T09:18:27.573Z,61.41
2022-07-25T09:21:01.683Z,61.27
2022-07-25T09:23:38.157Z,61.86
2022-07-25T09:26:15.378Z,61.89
2022-07-25T09:28:48.304Z,61.85
2022-07-25T09:31:17.585Z,62.51
2022-07-25T09:34:01.787Z,62.48
2022-07-25T09:36:28.621Z,61.89
2022-07-25T09:39:02.893Z,61.69
2022-07-25T09:41:41.319Z,61.54
2022-07-25T09:44:30.381Z,61.89
2022-07-25T09:46:59.230Z,62.21
2022-07-25T09:49:27.039Z,62.18
2022-07-25T09:51:55.277Z,61.55
2022-07-25T09:54:24.215Z,61.88
2022-07-25T09:56:52.416Z,62.83
2022-07-25T09:59:21.787Z,62.72
2022-07-25T10:02:17.918Z,62.93
2022-07-25T10:05:08.294Z,62.62
2022-07-25T10:07:39.124Z,62.66
2022-07-25T10:10:07.101Z,62.53
2022-07-25T10:12:35.017Z,62.86
2022-07-25T10:15:13.988Z,61.17
2022-07-25T10:17:42.122Z,60.73
2022-07-25T10:20:11.246Z,60.28
2022-07-25T10:22:57.597Z,60.63
2022-07-25T10:25:25.131Z,60.25
2022-07-25T10:28:03.109Z,60.27
2022-07-25T10:30:39.593Z,60.28
2022-07-25T10:33:18.922Z,60.92
2022-07-25T10:35:46.492Z,60.91
2022-07-25T10:38:13.694Z,60.71
2022-07-25T10:40:46.748Z,60.22
2022-07-25T10:43:22.018Z,60.57
2022-07-25T10:45:57.220Z,61.06
2022-07-25T10:48:30.844Z,60.67
2022-07-25T10:51:08.385Z,61.35
2022-07-25T10:53:47.106Z,61.39
2022-07-25T10:56:27.177Z,59.99
2022-07-25T10:59:02.165Z,59.77
2022-07-25T11:01:36.741Z,59.79
2022-07-25T11:04:15.949Z,59.68
2022-07-25T11:06:43.665Z,59.78
2022-07-25T11:09:22.702Z,59.42
2022-07-25T11:11:57.399Z,60.37
2022-07-25T11:14:41.909Z,64.67
2022-07-25T11:17:15.823Z,66.64
2022-07-25T11:19:45.288Z,67.76
2022-07-25T11:22:12.389Z,68.39
2022-07-25T11:24:47.369Z,68.74
2022-07-25T11:27:40.755Z,70.15
2022-07-25T11:30:17.688Z,71.14
2022-07-25T11:32:50.006Z,69.68
2022-07-25T11:35:26.916Z,69.62
2022-07-25T11:37:55.453Z,70.35
2022-07-25T11:42:53.114Z,70.09
2022-07-25T11:45:40.108Z,71.96
2022-07-25T11:48:13.552Z,70.68
2022-07-25T11:50:45.425Z,70.33
2022-07-25T11:53:14.926Z,70.10
2022-07-25T11:55:43.919Z,71.58
2022-07-25T11:58:15.497Z,71.84
2022-07-25T12:00:47.229Z,71.91
2022-07-25T12:03:20.474Z,71.68
2022-07-25T12:05:49.914Z,70.45
2022-07-25T12:08:20.874Z,69.48
2022-07-25T12:10:49.374Z,69.56
2022-07-25T12:13:24.617Z,70.70
2022-07-25T12:15:51.467Z,69.07
2022-07-25T12:18:18.604Z,69.73
2022-07-25T12:20:45.499Z,69.73
2022-07-25T12:23:14.567Z,68.31
2022-07-25T12:25:45.318Z,67.82
2022-07-25T12:28:13.124Z,68.14
2022-07-25T12:30:42.759Z,67.27
2022-07-25T12:33:10.125Z,66.99
2022-07-25T12:35:37.659Z,67.52
2022-07-25T12:38:05.295Z,68.81
2022-07-25T12:40:33.314Z,67.94
2022-07-25T12:43:00.559Z,67.28
2022-07-25T12:45:28.275Z,67.84
2022-07-25T12:47:55.974Z,67.89
2022-07-25T12:50:25.992Z,65.66
2022-07-25T12:52:53.797Z,66.45
2022-07-25T12:55:21.783Z,65.95
2022-07-25T12:57:50.245Z,67.12
2022-07-25T13:00:21.850Z,67.53
2022-07-25T13:02:52.210Z,67.60
2022-07-25T13:05:20.641Z,68.05
2022-07-25T13:07:49.337Z,68.36
2022-07-25T13:10:17.650Z,66.84
2022-07-25T13:12:45.017Z,66.39
2022-07-25T13:15:11.960Z,67.02
2022-07-25T13:17:40.572Z,69.11
2022-07-25T13:20:08.811Z,70.23
2022-07-25T13:22:35.773Z,71.72
2022-07-25T13:25:02.696Z,72.17
2022-07-25T13:27:29.516Z,72.76
2022-07-25T13:29:58.127Z,72.52
2022-07-25T13:32:26.834Z,71.90
2022-07-25T13:34:53.690Z,72.53
2022-07-25T13:37:20.813Z,71.89
2022-07-25T13:39:47.733Z,72.65
2022-07-25T13:42:14.592Z,72.74
2022-07-25T13:44:41.466Z,72.90
2022-07-25T13:47:08.818Z,72.34
2022-07-25T13:49:37.141Z,71.70
2022-07-25T13:52:04.678Z,70.65
2022-07-25T13:54:31.857Z,70.08
2022-07-25T13:56:59.212Z,71.28
2022-07-25T13:59:26.070Z,70.93
2022-07-25T14:01:52.982Z,69.70
2022-07-25T14:04:20.198Z,70.18
2022-07-25T14:06:52.249Z,70.89
2022-07-25T14:09:20.956Z,70.13
2022-07-25T14:11:48.273Z,71.05
2022-07-25T14:14:15.459Z,69.24
2022-07-25T14:16:42.368Z,68.78
2022-07-25T14:19:10.379Z,68.26
2022-07-25T14:21:38.099Z,67.46
2022-07-25T14:24:05.676Z,66.88
2022-07-25T14:26:35.048Z,67.17
2022-07-25T14:29:02.562Z,68.69
2022-07-25T14:31:29.736Z,68.79
2022-07-25T14:33:56.932Z,69.41
2022-07-25T14:36:24.181Z,70.54
2022-07-25T14:38:51.122Z,70.50
2022-07-25T14:41:19.746Z,71.24
2022-07-25T14:43:46.597Z,70.83
2022-07-25T14:46:14.059Z,70.86
2022-07-25T14:48:41.621Z,70.70
2022-07-25T14:51:08.702Z,71.01
2022-07-25T14:53:36.278Z,69.63
2022-07-25T14:56:05.735Z,69.76
2022-07-25T14:58:33.760Z,69.45
2022-07-25T15:01:00.994Z,68.44
2022-07-25T15:03:27.992Z,67.54
2022-07-25T15:05:54.868Z,67.60
2022-07-25T15:08:22.385Z,66.99
2022-07-25T15:10:49.415Z,68.09
2022-07-25T15:13:32.589Z,68.10
2022-07-25T15:16:01.105Z,66.67
2022-07-25T15:18:28.799Z,64.15
2022-07-25T15:20:55.727Z,63.01
2022-07-25T15:23:25.839Z,63.38
2022-07-25T15:26:01.767Z,63.62
2022-07-25T15:28:32.681Z,64.96
2022-07-25T15:30:59.607Z,66.12
2022-07-25T15:33:26.596Z,66.09
2022-07-25T15:35:53.580Z,66.45
2022-07-25T15:38:20.726Z,66.18
2022-07-25T15:40:48.212Z,66.97
2022-07-25T15:43:15.117Z,66.94
2022-07-25T15:45:46.037Z,67.17
2022-07-25T15:48:15.133Z,66.66
2022-07-25T15:50:48.573Z,66.67
2022-07-25T15:53:16.000Z,66.97
2022-07-25T15:55:43.576Z,65.59
2022-07-25T15:58:11.668Z,64.95
2022-07-25T16:00:39.960Z,64.37
2022-07-25T16:03:07.823Z,63.96
2022-07-25T16:05:35.653Z,64.21
2022-07-25T16:08:03.599Z,64.00
2022-07-25T16:10:32.880Z,63.91
2022-07-25T16:13:00.357Z,63.92
2022-07-25T16:15:28.556Z,63.87
2022-07-25T16:18:01.883Z,63.18
2022-07-25T16:20:30.136Z,63.17
2022-07-25T16:22:59.301Z,63.48
2022-07-25T16:25:28.243Z,63.94
2022-07-25T16:27:55.690Z,63.42
2022-07-25T16:30:23.025Z,63.47
2022-07-25T16:32:49.920Z,63.92
2022-07-25T16:35:17.114Z,63.34
2022-07-25T16:37:44.464Z,63.24
2022-07-25T16:40:12.688Z,63.05
2022-07-25T16:42:39.917Z,61.98
2022-07-25T16:45:07.970Z,61.36
2022-07-25T16:47:35.199Z,60.63
2022-07-25T16:50:02.344Z,61.81
2022-07-25T16:52:29.181Z,60.87
2022-07-25T16:54:56.028Z,60.78
2022-07-25T16:57:24.729Z,60.57
2022-07-25T16:59:53.698Z,61.74
2022-07-25T17:02:28.904Z,61.69
2022-07-25T17:04:57.507Z,62.09
2022-07-25T17:07:25.183Z,62.01
2022-07-25T17:09:52.408Z,62.42
2022-07-25T17:12:20.283Z,62.26
2022-07-25T17:14:48.119Z,62.14
2022-07-25T17:17:14.941Z,62.88
2022-07-25T17:19:42.384Z,61.91
2022-07-25T17:22:10.720Z,61.15
2022-07-25T17:24:39.521Z,61.43
2022-07-25T17:27:08.448Z,61.62
2022-07-25T17:29:36.206Z,62.18
2022-07-25T17:32:07.321Z,61.59
2022-07-25T17:34:34.723Z,60.79
2022-07-25T17:37:03.190Z,60.23
2022-07-25T17:39:34.482Z,60.77
2022-07-25T17:42:02.224Z,62.36
2022-07-25T17:44:29.159Z,64.59
2022-07-25T17:46:56.074Z,65.66
2022-07-25T17:49:23.017Z,66.68
2022-07-25T17:51:50.299Z,68.53
2022-07-25T17:54:17.745Z,68.74
2022-07-25T17:56:45.588Z,68.88
2022-07-25T17:59:13.241Z,69.22
2022-07-25T18:01:40.259Z,68.88
2022-07-25T18:04:07.707Z,69.03
2022-07-25T18:06:34.988Z,69.49
2022-07-25T18:09:02.237Z,70.09
2022-07-25T18:11:29.115Z,69.92
2022-07-25T18:13:56.015Z,69.53
2022-07-25T18:16:23.223Z,69.41
2022-07-25T18:18:50.133Z,69.53
2022-07-25T18:21:17.306Z,68.57
2022-07-25T18:23:44.116Z,68.98
2022-07-25T18:26:11.097Z,68.36
2022-07-25T18:28:38.367Z,68.68
2022-07-25T18:31:05.875Z,67.96
2022-07-25T18:33:33.045Z,67.72
2022-07-25T18:36:04.098Z,67.85
2022-07-25T18:38:34.392Z,68.00
2022-07-25T18:41:27.479Z,67.98
2022-07-25T18:43:50.254Z,68.23
2022-07-25T18:46:18.201Z,67.56
2022-07-25T18:48:46.245Z,67.69
2022-07-25T18:51:13.490Z,67.83
2022-07-25T18:53:42.825Z,67.48
2022-07-25T18:56:13.337Z,67.68
2022-07-25T18:58:40.944Z,67.39
2022-07-25T19:01:09.463Z,67.17
2022-07-25T19:03:37.752Z,67.56
2022-07-25T19:06:05.565Z,67.13
2022-07-25T19:08:33.060Z,66.67
2022-07-25T19:11:00.117Z,66.70
2022-07-25T19:13:48.205Z,66.67
2022-07-25T19:16:15.691Z,66.76
2022-07-25T19:18:43.006Z,67.13
2022-07-25T19:21:10.613Z,67.36
2022-07-25T19:23:37.658Z,67.02
2022-07-25T19:26:04.608Z,66.54
2022-07-25T19:28:31.583Z,66.22
2022-07-25T19:31:01.689Z,65.79
2022-07-25T19:33:34.830Z,64.69
2022-07-25T19:36:04.506Z,64.97
2022-07-25T19:38:31.452Z,64.47
2022-07-25T19:40:58.432Z,64.43
2022-07-25T19:43:25.626Z,64.61
2022-07-25T19:45:52.506Z,64.14
2022-07-25T19:48:23.815Z,64.39
2022-07-25T19:50:51.986Z,64.21
2022-07-25T19:53:19.153Z,64.33
2022-07-25T19:55:46.064Z,63.39
2022-07-25T19:58:12.888Z,64.14
2022-07-25T20:00:40.133Z,64.06
2022-07-25T20:03:07.281Z,64.42
2022-07-25T20:05:34.766Z,64.38
2022-07-25T20:08:01.815Z,64.47
2022-07-25T20:10:28.828Z,64.33
2022-07-25T20:12:59.566Z,64.54
2022-07-25T20:15:28.586Z,64.66
2022-07-25T20:17:56.930Z,65.08
2022-07-25T20:20:24.875Z,65.32
2022-07-25T20:22:52.108Z,65.48
2022-07-25T20:25:20.021Z,65.78
2022-07-25T20:27:49.854Z,65.79
2022-07-25T20:30:18.063Z,65.94
2022-07-25T20:32:45.237Z,66.24
2022-07-25T20:35:12.407Z,66.12
2022-07-25T20:37:39.489Z,66.31
2022-07-25T20:40:08.742Z,66.59
2022-07-25T20:42:37.989Z,66.65
2022-07-25T20:45:06.743Z,66.96
2022-07-25T20:47:34.611Z,67.03
2022-07-25T20:50:01.985Z,67.11
2022-07-25T20:52:30.419Z,66.94
2022-07-25T20:54:57.387Z,66.91
2022-07-25T20:57:24.386Z,66.94
2022-07-25T20:59:51.423Z,67.36
2022-07-25T21:02:18.822Z,67.10
2022-07-25T21:04:48.539Z,67.66
2022-07-25T21:07:16.925Z,68.02
2022-07-25T21:09:44.684Z,68.22
2022-07-25T21:12:11.615Z,68.15
2022-07-25T21:14:38.600Z,68.63
2022-07-25T21:17:06.914Z,68.60
2022-07-25T21:19:33.937Z,68.75
2022-07-25T21:22:02.180Z,69.09
2022-07-25T21:24:29.086Z,68.81
2022-07-25T21:26:55.919Z,69.14
2022-07-25T21:29:22.794Z,69.12
2022-07-25T21:31:50.039Z,69.44
2022-07-25T21:34:16.958Z,69.60
2022-07-25T21:36:43.814Z,69.48
2022-07-25T21:39:10.919Z,69.38
2022-07-25T21:41:38.024Z,69.46
2022-07-25T21:44:05.915Z,69.11
2022-07-25T21:46:32.927Z,69.60
2022-07-25T21:49:18.421Z,69.64
2022-07-25T21:52:05.830Z,69.59
2022-07-25T21:54:33.325Z,69.93
2022-07-25T21:57:00.177Z,69.32
2022-07-25T21:59:27.218Z,69.93
2022-07-25T22:01:54.089Z,70.09
2022-07-25T22:04:21.613Z,70.04
2022-07-25T22:06:48.600Z,70.41
2022-07-25T22:09:15.466Z,70.28
2022-07-25T22:11:46.434Z,70.34
2022-07-25T22:14:14.499Z,70.82
2022-07-25T22:16:42.173Z,71.24
2022-07-25T22:19:09.544Z,70.81
2022-07-25T22:21:36.831Z,71.04
2022-07-25T22:24:03.801Z,71.19
2022-07-25T22:26:30.624Z,71.05
2022-07-25T22:28:57.538Z,71.18
2022-07-25T22:31:24.446Z,70.87
2022-07-25T22:33:51.646Z,71.39
2022-07-25T22:36:18.699Z,71.34
2022-07-25T22:38:46.019Z,71.56
2022-07-25T22:41:13.147Z,71.55
2022-07-25T22:43:57.590Z,71.65
2022-07-25T22:46:28.577Z,72.02
2022-07-25T22:48:56.721Z,71.94
2022-07-25T22:51:24.286Z,72.11
2022-07-25T22:53:51.524Z,71.97
2022-07-25T22:56:18.957Z,72.35
2022-07-25T22:58:48.698Z,72.68
2022-07-25T23:01:17.903Z,72.57
2022-07-25T23:03:45.716Z,72.68
2022-07-25T23:06:13.296Z,72.84
2022-07-25T23:08:40.080Z,72.86
2022-07-25T23:11:07.004Z,73.21
2022-07-25T23:13:35.441Z,73.31
2022-07-25T23:16:03.413Z,72.94
2022-07-25T23:18:31.422Z,73.06
2022-07-25T23:20:58.495Z,73.21
2022-07-25T23:23:25.823Z,73.23
2022-07-25T23:25:52.860Z,73.36
2022-07-25T23:28:19.741Z,73.43
2022-07-25T23:30:47.204Z,73.57
2022-07-25T23:33:14.042Z,73.64
2022-07-25T23:35:42.415Z,74.01
2022-07-25T23:38:10.956Z,74.87
2022-07-25T23:40:37.996Z,75.30
2022-07-25T23:43:05.173Z,74.82
2022-07-25T23:45:32.584Z,75.09
2022-07-25T23:47:59.793Z,75.38
2022-07-25T23:50:26.897Z,75.61
2022-07-25T23:52:53.900Z,75.51
2022-07-25T23:55:20.822Z,75.94
2022-07-25T23:57:47.655Z,76.12
